createdAt,value
2023-02-15T00:00:36.412Z,92.0
2023-02-15T00:01:36.450Z,91.8
2023-02-15T00:02:36.419Z,91.7
2023-02-15T00:03:36.429Z,91.8
2023-02-15T00:04:36.438Z,91.9
2023-02-15T00:05:36.463Z,92.0
2023-02-15T00:06:36.480Z,91.8
2023-02-15T00:07:36.497Z,91.8
2023-02-15T00:08:36.527Z,91.7
2023-02-15T00:09:36.513Z,91.9
2023-02-15T00:10:36.539Z,91.8
2023-02-15T00:11:36.538Z,91.4
2023-02-15T00:12:36.578Z,91.6
2023-02-15T00:13:36.565Z,91.7
2023-02-15T00:14:36.589Z,91.9
2023-02-15T00:15:36.602Z,91.9
2023-02-15T00:16:36.736Z,91.7
2023-02-15T00:17:36.614Z,91.6
2023-02-15T00:18:36.619Z,91.7
2023-02-15T00:19:36.656Z,91.8
2023-02-15T00:20:36.650Z,91.7
2023-02-15T00:21:36.680Z,91.6
2023-02-15T00:22:36.671Z,91.9
2023-02-15T00:23:36.710Z,91.7
2023-02-15T00:24:36.702Z,91.5
2023-02-15T00:25:36.696Z,91.7
2023-02-15T00:26:36.764Z,91.8
2023-02-15T00:27:36.734Z,91.7
2023-02-15T00:28:36.728Z,91.6
2023-02-15T00:29:36.783Z,91.5
2023-02-15T00:30:36.829Z,91.5
2023-02-15T00:31:36.929Z,91.6
2023-02-15T00:32:36.775Z,91.7
2023-02-15T00:33:36.794Z,91.5
2023-02-15T00:34:36.809Z,91.5
2023-02-15T00:35:36.811Z,91.7
2023-02-15T00:36:36.861Z,91.4
2023-02-15T00:37:36.859Z,91.3
2023-02-15T00:38:36.856Z,91.3
2023-02-15T00:39:36.861Z,91.3
2023-02-15T00:40:36.870Z,91.4
2023-02-15T00:41:36.911Z,91.6
2023-02-15T00:42:36.924Z,91.2
2023-02-15T00:43:36.927Z,91.3
2023-02-15T00:44:36.921Z,91.2
2023-02-15T00:45:37.044Z,91.2
2023-02-15T00:46:36.971Z,91.0
2023-02-15T00:47:36.963Z,90.9
2023-02-15T00:48:36.997Z,91.2
2023-02-15T00:49:36.984Z,91.3
2023-02-15T00:50:36.991Z,91.3
2023-02-15T00:51:37.029Z,91.2
2023-02-15T00:52:36.999Z,91.4
2023-02-15T00:53:37.033Z,91.4
2023-02-15T00:54:37.034Z,91.5
2023-02-15T00:55:37.058Z,91.5
2023-02-15T00:56:37.073Z,91.5
2023-02-15T00:57:37.105Z,91.1
2023-02-15T00:58:37.095Z,91.0
2023-02-15T00:59:37.141Z,91.0
2023-02-15T01:00:37.100Z,91.3
2023-02-15T01:01:37.357Z,91.3
2023-02-15T01:02:37.137Z,91.2
2023-02-15T01:03:37.170Z,91.1
2023-02-15T01:04:37.340Z,91.3
2023-02-15T01:05:37.317Z,91.2
2023-02-15T01:06:37.224Z,91.3
2023-02-15T01:07:37.198Z,91.3
2023-02-15T01:08:37.209Z,91.2
2023-02-15T01:09:37.222Z,91.2
2023-02-15T01:10:37.245Z,91.1
2023-02-15T01:11:37.268Z,91.3
2023-02-15T01:12:37.266Z,91.2
2023-02-15T01:13:37.295Z,90.9
2023-02-15T01:14:37.334Z,90.6
2023-02-15T01:15:37.440Z,90.8
2023-02-15T01:16:37.326Z,90.8
2023-02-15T01:17:37.344Z,90.6
2023-02-15T01:18:37.376Z,90.5
2023-02-15T01:19:37.410Z,90.5
2023-02-15T01:20:37.385Z,90.4
2023-02-15T01:21:37.397Z,90.4
2023-02-15T01:22:37.433Z,90.2
2023-02-15T01:23:37.427Z,90.3
2023-02-15T01:24:37.432Z,90.1
2023-02-15T01:25:37.480Z,90.4
2023-02-15T01:26:37.484Z,90.5
2023-02-15T01:27:37.476Z,90.6
2023-02-15T01:28:37.489Z,90.7
2023-02-15T01:29:37.515Z,90.7
2023-02-15T01:30:37.512Z,90.7
2023-02-15T01:31:37.889Z,90.2
2023-02-15T01:32:37.536Z,90.2
2023-02-15T01:33:37.549Z,89.9
2023-02-15T01:34:37.551Z,90.2
2023-02-15T01:35:37.588Z,90.2
2023-02-15T01:36:37.595Z,90.2
2023-02-15T01:37:37.593Z,90.3
2023-02-15T01:38:37.611Z,90.4
2023-02-15T01:39:37.623Z,90.3
2023-02-15T01:40:37.623Z,90.2
2023-02-15T01:41:37.625Z,89.9
2023-02-15T01:42:37.637Z,90.0
2023-02-15T01:43:37.662Z,90.1
2023-02-15T01:44:37.680Z,90.2
2023-02-15T01:45:37.692Z,90.2
2023-02-15T01:46:38.091Z,90.0
2023-02-15T01:47:37.758Z,90.0
2023-02-15T01:48:37.717Z,90.0
2023-02-15T01:49:37.716Z,90.0
2023-02-15T01:50:37.847Z,89.8
2023-02-15T01:51:37.757Z,90.0
2023-02-15T01:52:37.734Z,90.2
2023-02-15T01:53:37.762Z,90.6
2023-02-15T01:54:37.749Z,90.5
2023-02-15T02:12:38.349Z,89.8
2023-02-15T02:13:38.027Z,89.7
2023-02-15T02:14:38.043Z,89.6
2023-02-15T02:15:38.148Z,89.6
2023-02-15T02:16:38.046Z,89.6
2023-02-15T02:17:38.064Z,89.7
2023-02-15T02:18:38.073Z,89.6
2023-02-15T02:19:38.082Z,89.5
2023-02-15T02:20:38.117Z,89.6
2023-02-15T02:21:38.114Z,89.4
2023-02-15T02:22:38.131Z,89.6
2023-02-15T02:23:38.171Z,89.6
2023-02-15T02:24:38.169Z,89.4
2023-02-15T02:25:38.169Z,89.5
2023-02-15T02:26:38.155Z,89.4
2023-02-15T02:27:38.165Z,89.4
2023-02-15T02:28:38.190Z,89.6
2023-02-15T02:29:38.218Z,89.5
2023-02-15T02:30:38.892Z,89.6
2023-02-15T02:31:38.644Z,89.5
2023-02-15T02:32:38.241Z,89.5
2023-02-15T02:33:38.518Z,89.4
2023-02-15T02:34:38.273Z,89.4
2023-02-15T02:35:38.272Z,89.3
2023-02-15T02:36:38.279Z,89.2
2023-02-15T02:37:38.309Z,89.2
2023-02-15T02:38:38.324Z,89.2
2023-02-15T02:39:38.347Z,89.1
2023-02-15T02:40:38.379Z,89.1
2023-02-15T02:41:38.400Z,89.2
2023-02-15T02:42:38.463Z,89.2
2023-02-15T02:43:38.403Z,88.9
2023-02-15T02:44:38.443Z,89.1
2023-02-15T02:45:38.441Z,89.1
2023-02-15T02:46:38.867Z,89.3
2023-02-15T02:47:38.453Z,88.9
2023-02-15T02:48:38.455Z,89.0
2023-02-15T02:49:38.481Z,88.9
2023-02-15T02:50:38.501Z,89.0
2023-02-15T02:51:38.534Z,89.1
2023-02-15T02:52:38.519Z,88.9
2023-02-15T02:53:38.556Z,89.0
2023-02-15T02:54:38.527Z,89.0
2023-02-15T02:55:38.555Z,88.8
2023-02-15T02:56:38.558Z,88.8
2023-02-15T02:57:38.570Z,88.7
2023-02-15T02:58:38.609Z,88.8
2023-02-15T02:59:38.588Z,88.8
2023-02-15T03:00:38.601Z,88.7
2023-02-15T03:01:38.701Z,88.7
2023-02-15T03:02:38.875Z,88.5
2023-02-15T03:03:38.704Z,88.6
2023-02-15T03:04:38.636Z,88.7
2023-02-15T03:05:38.698Z,88.7
2023-02-15T03:06:38.673Z,88.6
2023-02-15T03:07:38.671Z,88.7
2023-02-15T03:08:38.701Z,88.8
2023-02-15T03:09:38.696Z,88.9
2023-02-15T03:10:38.726Z,88.6
2023-02-15T03:11:38.743Z,88.8
2023-02-15T03:12:38.769Z,88.8
2023-02-15T03:13:38.812Z,88.7
2023-02-15T03:14:38.779Z,88.6
2023-02-15T03:15:38.778Z,88.3
2023-02-15T03:16:38.953Z,88.2
2023-02-15T03:17:38.811Z,88.2
2023-02-15T03:18:38.823Z,88.2
2023-02-15T03:19:38.818Z,88.2
2023-02-15T03:20:38.846Z,88.4
2023-02-15T03:21:38.855Z,88.5
2023-02-15T03:22:38.858Z,88.7
2023-02-15T03:23:38.869Z,88.6
2023-02-15T03:24:38.884Z,88.8
2023-02-15T03:25:38.909Z,88.8
2023-02-15T03:26:38.896Z,88.7
2023-02-15T03:27:38.928Z,88.6
2023-02-15T03:28:38.925Z,88.5
2023-02-15T03:29:38.976Z,88.4
2023-02-15T03:30:38.973Z,88.5
2023-02-15T03:31:39.468Z,88.2
2023-02-15T03:32:39.030Z,88.1
2023-02-15T03:33:39.022Z,88.1
2023-02-15T03:34:39.032Z,88.1
2023-02-15T03:35:39.038Z,88.2
2023-02-15T03:36:39.037Z,88.0
2023-02-15T03:37:39.094Z,88.1
2023-02-15T03:38:39.121Z,88.2
2023-02-15T03:39:39.177Z,88.1
2023-02-15T03:40:39.116Z,88.0
2023-02-15T03:41:39.122Z,88.2
2023-02-15T03:42:39.126Z,88.3
2023-02-15T03:43:39.345Z,88.0
2023-02-15T03:44:39.153Z,88.2
2023-02-15T03:45:39.176Z,88.3
2023-02-15T03:46:39.410Z,88.2
2023-02-15T03:47:39.222Z,88.1
2023-02-15T03:48:39.220Z,88.1
2023-02-15T03:49:39.226Z,88.2
2023-02-15T03:50:39.234Z,88.2
2023-02-15T03:51:39.423Z,88.1
2023-02-15T03:52:39.290Z,88.1
2023-02-15T03:53:39.311Z,88.0
2023-02-15T03:54:39.434Z,88.2
2023-02-15T03:55:39.294Z,88.1
2023-02-15T03:56:39.303Z,88.0
2023-02-15T03:57:39.334Z,88.1
2023-02-15T03:58:39.349Z,88.0
2023-02-15T03:59:39.388Z,88.1
2023-02-15T04:00:39.343Z,87.9
2023-02-15T04:01:39.395Z,87.8
2023-02-15T04:02:39.516Z,87.7
2023-02-15T04:03:39.374Z,87.7
2023-02-15T04:04:39.444Z,87.6
2023-02-15T04:05:39.448Z,87.7
2023-02-15T04:06:39.431Z,87.5
2023-02-15T04:07:39.428Z,87.5
2023-02-15T04:08:39.442Z,87.3
2023-02-15T04:09:39.451Z,87.4
2023-02-15T04:10:39.450Z,87.4
2023-02-15T04:11:39.476Z,87.3
2023-02-15T04:12:39.449Z,87.3
2023-02-15T04:13:39.490Z,87.5
2023-02-15T04:14:39.488Z,87.3
2023-02-15T04:15:39.475Z,87.4
2023-02-15T04:16:39.632Z,87.4
2023-02-15T04:17:39.538Z,87.4
2023-02-15T04:18:39.510Z,87.5
2023-02-15T04:19:39.516Z,87.5
2023-02-15T04:20:39.540Z,87.7
2023-02-15T04:21:39.533Z,87.7
2023-02-15T04:22:39.548Z,87.7
2023-02-15T04:23:39.540Z,87.6
2023-02-15T04:24:39.576Z,87.7
2023-02-15T04:25:39.558Z,87.6
2023-02-15T04:26:39.604Z,87.5
2023-02-15T04:27:39.574Z,87.4
2023-02-15T04:28:39.577Z,87.4
2023-02-15T04:29:39.666Z,87.5
2023-02-15T04:30:39.663Z,87.5
2023-02-15T04:31:40.044Z,87.4
2023-02-15T04:32:39.600Z,87.4
2023-02-15T04:33:39.636Z,87.6
2023-02-15T04:34:39.629Z,87.4
2023-02-15T04:35:39.613Z,87.6
2023-02-15T04:36:39.622Z,87.6
2023-02-15T04:37:39.646Z,87.5
2023-02-15T04:38:39.631Z,87.5
2023-02-15T04:39:39.667Z,87.5
2023-02-15T04:40:39.660Z,87.4
2023-02-15T04:41:39.653Z,87.4
2023-02-15T04:42:39.679Z,87.5
2023-02-15T04:43:39.672Z,87.5
2023-02-15T04:44:39.798Z,87.3
2023-02-15T04:45:39.981Z,87.4
2023-02-15T04:46:39.708Z,87.2
2023-02-15T04:47:39.729Z,87.1
2023-02-15T04:48:39.717Z,87.3
2023-02-15T04:49:39.760Z,87.4
2023-02-15T04:50:39.787Z,87.4
2023-02-15T04:51:39.754Z,87.5
2023-02-15T04:52:39.765Z,87.5
2023-02-15T04:53:39.739Z,87.5
2023-02-15T04:54:40.120Z,87.6
2023-02-15T04:55:39.773Z,87.5
2023-02-15T04:56:39.820Z,87.6
2023-02-15T04:57:39.826Z,87.7
2023-02-15T04:58:39.805Z,87.5
2023-02-15T04:59:39.825Z,87.5
2023-02-15T05:00:39.855Z,87.4
2023-02-15T05:01:39.817Z,87.4
2023-02-15T05:02:39.812Z,87.4
2023-02-15T05:03:39.862Z,87.3
2023-02-15T05:04:39.861Z,87.3
2023-02-15T05:05:39.856Z,87.3
2023-02-15T05:06:39.896Z,87.2
2023-02-15T05:07:39.900Z,87.3
2023-02-15T05:08:39.915Z,87.3
2023-02-15T05:09:39.938Z,87.3
2023-02-15T05:10:39.944Z,87.3
2023-02-15T05:11:39.957Z,87.4
2023-02-15T05:12:39.939Z,87.4
2023-02-15T05:13:39.930Z,87.3
2023-02-15T05:14:39.927Z,87.2
2023-02-15T05:15:39.975Z,87.2
2023-02-15T05:16:40.278Z,87.1
2023-02-15T05:17:39.995Z,87.0
2023-02-15T05:18:39.967Z,87.1
2023-02-15T05:19:39.992Z,87.0
2023-02-15T05:20:40.018Z,87.0
2023-02-15T05:21:40.029Z,87.0
2023-02-15T05:22:40.028Z,87.1
2023-02-15T05:23:40.026Z,87.0
2023-02-15T05:24:39.985Z,86.7
2023-02-15T05:25:40.088Z,86.7
2023-02-15T05:26:40.045Z,86.7
2023-02-15T05:27:40.023Z,86.7
2023-02-15T05:28:40.125Z,86.8
2023-02-15T05:29:40.043Z,86.8
2023-02-15T05:30:40.721Z,86.8
2023-02-15T05:31:41.111Z,86.9
2023-02-15T05:32:40.774Z,86.8
2023-02-15T05:33:40.108Z,86.8
2023-02-15T05:34:40.083Z,86.8
2023-02-15T05:35:40.065Z,86.7
2023-02-15T05:36:40.114Z,86.5
2023-02-15T05:37:40.101Z,86.6
2023-02-15T05:38:40.127Z,86.5
2023-02-15T05:39:40.128Z,86.6
2023-02-15T05:40:40.253Z,86.4
2023-02-15T05:41:40.166Z,86.4
2023-02-15T05:42:40.137Z,86.6
2023-02-15T05:43:40.146Z,86.7
2023-02-15T05:44:40.172Z,86.8
2023-02-15T05:45:40.366Z,86.7
2023-02-15T05:46:40.159Z,86.4
2023-02-15T05:47:40.151Z,86.4
2023-02-15T05:48:40.183Z,86.4
2023-02-15T05:49:40.155Z,86.4
2023-02-15T05:50:40.160Z,86.4
2023-02-15T05:51:40.183Z,86.5
2023-02-15T05:52:40.184Z,86.4
2023-02-15T05:53:40.197Z,86.4
2023-02-15T05:54:40.203Z,86.4
2023-02-15T05:55:40.207Z,86.4
2023-02-15T05:56:40.220Z,86.5
2023-02-15T05:57:40.216Z,86.5
2023-02-15T05:58:40.227Z,86.6
2023-02-15T05:59:40.233Z,86.6
2023-02-15T06:00:40.223Z,86.7
2023-02-15T06:01:40.253Z,86.6
2023-02-15T06:02:40.469Z,86.6
2023-02-15T06:03:40.543Z,86.7
2023-02-15T06:04:40.257Z,86.8
2023-02-15T06:05:40.257Z,86.9
2023-02-15T06:06:40.275Z,86.9
2023-02-15T06:07:40.279Z,86.9
2023-02-15T06:08:40.306Z,86.6
2023-02-15T06:09:40.290Z,86.7
2023-02-15T06:10:40.301Z,86.6
2023-02-15T06:11:40.321Z,86.5
2023-02-15T06:12:40.335Z,86.3
2023-02-15T06:13:40.321Z,86.3
2023-02-15T06:14:40.315Z,86.4
2023-02-15T06:15:40.449Z,86.3
2023-02-15T06:16:40.333Z,86.3
2023-02-15T06:17:40.344Z,86.3
2023-02-15T06:18:40.349Z,86.0
2023-02-15T06:19:40.345Z,86.2
2023-02-15T06:20:40.353Z,86.1
2023-02-15T06:21:40.365Z,86.1
2023-02-15T06:22:40.382Z,85.8
2023-02-15T06:23:40.369Z,85.6
2023-02-15T06:24:40.390Z,85.5
2023-02-15T06:25:40.395Z,85.4
2023-02-15T06:26:40.393Z,85.3
2023-02-15T06:27:40.393Z,85.3
2023-02-15T06:28:40.398Z,85.3
2023-02-15T06:29:40.425Z,85.2
2023-02-15T06:30:40.726Z,85.3
2023-02-15T06:31:40.838Z,85.3
2023-02-15T06:32:40.433Z,84.8
2023-02-15T06:33:40.432Z,84.9
2023-02-15T06:34:40.442Z,84.8
2023-02-15T06:35:40.476Z,84.6
2023-02-15T06:36:40.510Z,84.8
2023-02-15T06:37:40.495Z,84.5
2023-02-15T06:38:40.512Z,84.6
2023-02-15T06:39:40.653Z,84.6
2023-02-15T06:40:40.499Z,84.8
2023-02-15T06:41:40.498Z,84.8
2023-02-15T06:42:40.535Z,84.8
2023-02-15T06:43:41.326Z,84.6
2023-02-15T06:44:40.513Z,84.5
2023-02-15T06:45:40.628Z,84.4
2023-02-15T06:46:40.695Z,84.4
2023-02-15T06:47:40.631Z,84.3
2023-02-15T06:48:40.537Z,84.6
2023-02-15T06:49:40.553Z,84.5
2023-02-15T06:50:40.565Z,84.7
2023-02-15T06:51:40.572Z,84.7
2023-02-15T06:52:40.567Z,84.7
2023-02-15T06:53:40.611Z,84.7
2023-02-15T06:54:40.630Z,84.7
2023-02-15T06:55:40.604Z,84.7
2023-02-15T06:56:40.604Z,84.7
2023-02-15T06:57:40.654Z,84.8
2023-02-15T06:58:40.638Z,84.7
2023-02-15T06:59:40.629Z,84.7
2023-02-15T07:00:40.696Z,84.5
2023-02-15T07:01:40.964Z,84.6
2023-02-15T07:02:40.640Z,84.7
2023-02-15T07:03:40.640Z,84.7
2023-02-15T07:04:40.897Z,84.7
2023-02-15T07:05:40.687Z,84.6
2023-02-15T07:06:40.663Z,84.5
2023-02-15T07:07:40.694Z,84.5
2023-02-15T07:08:40.702Z,84.3
2023-02-15T07:09:40.760Z,84.5
2023-02-15T07:10:40.691Z,84.5
2023-02-15T07:11:40.689Z,84.7
2023-02-15T07:12:40.698Z,84.6
2023-02-15T07:13:40.705Z,84.7
2023-02-15T07:14:40.711Z,84.7
2023-02-15T07:15:40.808Z,84.7
2023-02-15T07:16:40.725Z,84.6
2023-02-15T07:17:40.731Z,84.5
2023-02-15T07:18:40.740Z,84.5
2023-02-15T07:19:40.768Z,84.6
2023-02-15T07:20:40.750Z,84.7
2023-02-15T07:21:40.760Z,84.9
2023-02-15T07:22:40.780Z,85.0
2023-02-15T07:23:40.781Z,84.9
2023-02-15T07:24:40.810Z,84.7
2023-02-15T07:25:40.809Z,84.8
2023-02-15T07:26:40.796Z,84.6
2023-02-15T07:27:40.830Z,84.7
2023-02-15T07:28:40.864Z,84.6
2023-02-15T07:29:40.829Z,84.4
2023-02-15T07:30:40.897Z,84.2
2023-02-15T07:31:40.883Z,84.0
2023-02-15T07:32:41.149Z,83.8
2023-02-15T07:33:40.862Z,84.0
2023-02-15T07:34:40.852Z,83.9
2023-02-15T07:35:40.914Z,84.0
2023-02-15T07:36:40.876Z,83.9
2023-02-15T07:37:40.893Z,84.1
2023-02-15T07:38:40.889Z,83.7
2023-02-15T07:39:40.927Z,83.7
2023-02-15T07:40:40.915Z,83.4
2023-02-15T07:41:40.932Z,83.5
2023-02-15T07:42:40.918Z,83.1
2023-02-15T07:43:40.952Z,83.4
2023-02-15T07:44:40.938Z,83.4
2023-02-15T07:45:40.961Z,83.4
2023-02-15T07:46:41.150Z,83.3
2023-02-15T07:47:40.982Z,83.4
2023-02-15T07:48:40.993Z,82.9
2023-02-15T07:49:40.996Z,83.0
2023-02-15T07:50:41.012Z,83.1
2023-02-15T07:51:41.005Z,83.1
2023-02-15T07:52:41.012Z,83.2
2023-02-15T07:53:41.029Z,83.4
2023-02-15T07:54:41.028Z,83.2
2023-02-15T07:55:41.043Z,83.2
2023-02-15T07:56:41.066Z,83.0
2023-02-15T07:57:41.054Z,82.9
2023-02-15T07:58:41.059Z,82.9
2023-02-15T07:59:41.100Z,82.8
2023-02-15T08:00:41.082Z,82.5
2023-02-15T08:01:41.088Z,82.6
2023-02-15T08:02:41.396Z,82.8
2023-02-15T08:03:41.359Z,82.9
2023-02-15T08:04:41.151Z,82.6
2023-02-15T08:05:41.167Z,82.6
2023-02-15T08:06:41.196Z,82.5
2023-02-15T08:07:41.160Z,82.4
2023-02-15T08:08:41.134Z,82.2
2023-02-15T08:09:41.188Z,82.3
2023-02-15T08:10:41.150Z,82.2
2023-02-15T08:11:41.155Z,82.0
2023-02-15T08:12:41.189Z,81.7
2023-02-15T08:13:41.160Z,81.7
2023-02-15T08:14:41.293Z,81.8
2023-02-15T08:15:41.170Z,81.5
2023-02-15T08:16:41.493Z,81.5
2023-02-15T08:17:41.197Z,81.3
2023-02-15T08:18:41.199Z,81.2
2023-02-15T08:19:41.213Z,81.9
2023-02-15T08:20:41.209Z,82.0
2023-02-15T08:21:41.238Z,81.7
2023-02-15T08:22:41.240Z,81.2
2023-02-15T08:23:41.235Z,81.3
2023-02-15T08:24:41.256Z,81.3
2023-02-15T08:25:41.270Z,81.1
2023-02-15T08:26:42.685Z,81.1
2023-02-15T08:27:41.258Z,81.0
2023-02-15T08:28:41.276Z,80.8
2023-02-15T08:29:41.368Z,80.7
2023-02-15T08:30:41.305Z,81.0
2023-02-15T08:31:41.727Z,81.2
2023-02-15T08:32:41.310Z,81.2
2023-02-15T08:33:41.313Z,81.2
2023-02-15T08:34:41.384Z,81.0
2023-02-15T08:35:41.319Z,81.3
2023-02-15T08:36:41.338Z,81.3
2023-02-15T08:37:41.327Z,81.4
2023-02-15T08:38:41.345Z,81.2
2023-02-15T08:39:41.354Z,81.2
2023-02-15T08:40:41.350Z,81.4
2023-02-15T08:41:41.357Z,81.4
2023-02-15T08:42:41.367Z,81.5
2023-02-15T08:43:41.395Z,81.5
2023-02-15T08:44:41.383Z,81.2
2023-02-15T08:45:41.613Z,81.2
2023-02-15T08:46:41.413Z,81.4
2023-02-15T08:47:41.521Z,81.6
2023-02-15T08:48:41.414Z,81.6
2023-02-15T08:49:41.436Z,81.6
2023-02-15T08:50:41.428Z,81.4
2023-02-15T08:51:41.448Z,81.5
2023-02-15T08:52:41.469Z,81.5
2023-02-15T08:53:41.464Z,81.5
2023-02-15T08:54:41.524Z,81.5
2023-02-15T08:55:41.485Z,81.7
2023-02-15T08:56:41.487Z,81.7
2023-02-15T08:57:41.500Z,81.6
2023-02-15T08:58:41.497Z,81.4
2023-02-15T08:59:41.520Z,81.3
2023-02-15T09:00:41.526Z,81.3
2023-02-15T09:01:41.919Z,81.5
2023-02-15T09:02:41.752Z,81.4
2023-02-15T09:03:41.541Z,81.3
2023-02-15T09:04:41.522Z,81.1
2023-02-15T09:05:41.539Z,80.9
2023-02-15T09:06:41.568Z,80.6
2023-02-15T09:07:41.569Z,80.8
2023-02-15T09:08:41.558Z,81.0
2023-02-15T09:09:41.564Z,80.8
2023-02-15T09:10:41.591Z,80.6
2023-02-15T09:11:41.601Z,80.6
2023-02-15T09:12:41.585Z,80.2
2023-02-15T09:13:41.593Z,80.2
2023-02-15T09:14:41.597Z,80.1
2023-02-15T09:15:41.605Z,79.8
2023-02-15T09:16:41.741Z,79.5
2023-02-15T09:17:41.618Z,79.4
2023-02-15T09:18:41.621Z,79.1
2023-02-15T09:19:41.624Z,78.7
2023-02-15T09:20:41.640Z,78.7
2023-02-15T09:21:41.636Z,78.6
2023-02-15T09:22:41.639Z,78.6
2023-02-15T09:23:41.649Z,78.4
2023-02-15T09:24:41.654Z,78.3
2023-02-15T09:25:41.677Z,78.2
2023-02-15T09:26:41.701Z,77.8
2023-02-15T09:27:41.683Z,77.7
2023-02-15T09:28:41.682Z,77.9
2023-02-15T09:29:41.692Z,78.0
2023-02-15T09:30:42.201Z,78.2
2023-02-15T09:31:41.768Z,78.1
2023-02-15T09:32:41.700Z,78.2
2023-02-15T09:33:41.722Z,78.0
2023-02-15T09:34:41.714Z,77.8
2023-02-15T09:35:41.756Z,77.9
2023-02-15T09:36:41.785Z,77.9
2023-02-15T09:37:41.741Z,78.0
2023-02-15T09:38:41.732Z,77.7
2023-02-15T09:39:41.755Z,77.6
2023-02-15T09:40:41.763Z,77.6
2023-02-15T09:41:41.757Z,77.5
2023-02-15T09:42:41.778Z,76.9
2023-02-15T09:43:41.766Z,77.0
2023-02-15T09:44:41.776Z,76.6
2023-02-15T09:45:41.919Z,76.9
2023-02-15T09:46:41.804Z,76.8
2023-02-15T09:47:41.804Z,76.4
2023-02-15T09:48:41.837Z,76.1
2023-02-15T09:49:41.814Z,76.4
2023-02-15T09:50:41.826Z,76.0
2023-02-15T09:51:41.825Z,75.8
2023-02-15T09:52:41.832Z,75.7
2023-02-15T09:53:41.863Z,75.7
2023-02-15T09:54:41.862Z,76.2
2023-02-15T09:55:41.897Z,76.4
2023-02-15T09:56:41.870Z,76.6
2023-02-15T09:57:41.882Z,76.1
2023-02-15T09:58:41.949Z,76.6
2023-02-15T09:59:41.888Z,76.0
2023-02-15T10:00:41.895Z,75.7
2023-02-15T10:01:42.072Z,75.8
2023-02-15T10:02:41.915Z,74.7
2023-02-15T10:03:41.912Z,74.5
2023-02-15T10:04:42.114Z,74.5
2023-02-15T10:05:41.937Z,74.7
2023-02-15T10:06:41.936Z,74.4
2023-02-15T10:07:41.959Z,74.5
2023-02-15T10:08:41.951Z,74.5
2023-02-15T10:09:42.003Z,74.4
2023-02-15T10:10:42.027Z,74.4
2023-02-15T10:11:42.051Z,74.4
2023-02-15T10:12:42.044Z,74.5
2023-02-15T10:13:42.037Z,74.6
2023-02-15T10:14:42.062Z,74.5
2023-02-15T10:15:42.084Z,74.6
2023-02-15T10:16:42.291Z,74.4
2023-02-15T10:17:42.061Z,74.4
2023-02-15T10:18:42.058Z,74.6
2023-02-15T10:19:42.065Z,74.7
2023-02-15T10:20:42.067Z,74.6
2023-02-15T10:21:42.069Z,74.6
2023-02-15T10:22:42.073Z,74.6
2023-02-15T10:23:42.180Z,74.2
2023-02-15T10:24:49.203Z,74.2
2023-02-15T10:25:42.085Z,74.4
2023-02-15T10:26:42.092Z,74.5
2023-02-15T10:27:42.133Z,74.7
2023-02-15T10:28:42.122Z,74.9
2023-02-15T10:29:42.102Z,75.4
2023-02-15T10:30:42.635Z,75.8
2023-02-15T10:31:42.638Z,76.0
2023-02-15T10:32:42.133Z,75.4
2023-02-15T10:33:42.202Z,75.5
2023-02-15T10:34:42.155Z,75.3
2023-02-15T10:35:42.181Z,75.3
2023-02-15T10:36:42.151Z,74.9
2023-02-15T10:37:42.162Z,74.8
2023-02-15T10:38:42.169Z,74.7
2023-02-15T10:39:42.178Z,74.3
2023-02-15T10:40:42.210Z,74.3
2023-02-15T10:41:42.192Z,74.1
2023-02-15T10:42:42.227Z,74.2
2023-02-15T10:43:42.408Z,74.4
2023-02-15T10:44:42.240Z,74.2
2023-02-15T10:45:42.239Z,74.4
2023-02-15T10:46:42.260Z,74.5
2023-02-15T10:47:42.267Z,74.5
2023-02-15T10:48:42.268Z,74.5
2023-02-15T10:49:42.265Z,74.6
2023-02-15T10:50:42.295Z,74.5
2023-02-15T10:51:42.277Z,74.2
2023-02-15T10:52:42.284Z,73.9
2023-02-15T10:53:42.486Z,73.9
2023-02-15T10:54:42.297Z,74.0
2023-02-15T10:55:42.316Z,73.9
2023-02-15T10:56:42.320Z,73.9
2023-02-15T10:57:42.360Z,73.9
2023-02-15T10:58:42.365Z,74.3
2023-02-15T10:59:42.350Z,74.4
2023-02-15T11:00:42.354Z,74.5
2023-02-15T11:01:42.769Z,74.5
2023-02-15T11:02:42.370Z,74.8
2023-02-15T11:03:42.593Z,74.6
2023-02-15T11:04:42.621Z,74.7
2023-02-15T11:05:42.395Z,74.3
2023-02-15T11:06:42.391Z,74.0
2023-02-15T11:07:42.414Z,73.9
2023-02-15T11:08:42.427Z,73.8
2023-02-15T11:09:42.446Z,73.5
2023-02-15T11:10:42.444Z,73.3
2023-02-15T11:11:42.423Z,73.3
2023-02-15T11:12:42.421Z,73.4
2023-02-15T11:13:42.633Z,73.5
2023-02-15T11:14:42.448Z,73.2
2023-02-15T11:15:42.738Z,73.3
2023-02-15T11:16:42.495Z,73.5
2023-02-15T11:17:42.465Z,73.7
2023-02-15T11:18:42.483Z,73.4
2023-02-15T11:19:42.481Z,73.3
2023-02-15T11:20:42.488Z,73.4
2023-02-15T11:21:42.502Z,73.1
2023-02-15T11:22:42.504Z,73.0
2023-02-15T11:23:42.511Z,73.0
2023-02-15T11:24:42.529Z,73.1
2023-02-15T11:25:42.526Z,72.7
2023-02-15T11:26:42.534Z,72.3
2023-02-15T11:27:42.767Z,72.3
2023-02-15T11:28:42.556Z,72.4
2023-02-15T11:29:42.576Z,72.2
2023-02-15T11:30:42.723Z,72.3
2023-02-15T11:31:43.194Z,72.1
2023-02-15T11:32:42.589Z,72.4
2023-02-15T11:33:42.756Z,72.8
2023-02-15T11:34:42.596Z,72.9
2023-02-15T11:35:42.634Z,72.8
2023-02-15T11:36:42.656Z,72.5
2023-02-15T11:37:42.630Z,72.7
2023-02-15T11:38:42.632Z,72.8
2023-02-15T11:39:42.648Z,72.5
2023-02-15T11:40:42.643Z,72.6
2023-02-15T11:41:42.647Z,72.2
2023-02-15T11:42:42.676Z,72.1
2023-02-15T11:43:42.658Z,72.4
2023-02-15T11:44:42.663Z,72.4
2023-02-15T11:45:42.684Z,72.3
2023-02-15T11:46:42.918Z,72.6
2023-02-15T11:47:42.744Z,72.6
2023-02-15T11:48:42.688Z,72.2
2023-02-15T11:49:42.719Z,72.1
2023-02-15T11:50:42.709Z,71.9
2023-02-15T11:51:42.719Z,71.8
2023-02-15T11:52:42.735Z,71.6
2023-02-15T11:53:42.800Z,71.7
2023-02-15T11:54:42.751Z,71.5
2023-02-15T11:55:42.763Z,71.5
2023-02-15T11:56:42.926Z,71.6
2023-02-15T11:57:42.777Z,71.7
2023-02-15T11:58:42.821Z,71.4
2023-02-15T11:59:42.806Z,71.2
2023-02-15T12:00:42.796Z,71.2
2023-02-15T12:01:42.810Z,71.3
2023-02-15T12:02:42.970Z,71.5
2023-02-15T12:03:43.083Z,71.5
2023-02-15T12:04:42.841Z,71.9
2023-02-15T12:05:42.867Z,72.1
2023-02-15T12:06:42.847Z,72.2
2023-02-15T12:07:42.921Z,72.2
2023-02-15T12:08:42.945Z,71.9
2023-02-15T12:09:42.887Z,71.9
2023-02-15T12:10:42.922Z,72.0
2023-02-15T12:11:42.902Z,71.9
2023-02-15T12:12:42.898Z,71.9
2023-02-15T12:13:42.903Z,71.8
2023-02-15T12:14:43.001Z,71.9
2023-02-15T12:15:43.098Z,72.1
2023-02-15T12:16:42.946Z,71.8
2023-02-15T12:17:42.984Z,71.9
2023-02-15T12:18:42.948Z,72.0
2023-02-15T12:19:42.943Z,72.0
2023-02-15T12:20:43.009Z,71.8
2023-02-15T12:21:42.995Z,71.8
2023-02-15T12:22:43.006Z,71.9
2023-02-15T12:23:42.995Z,71.8
2023-02-15T12:24:43.026Z,72.1
2023-02-15T12:25:43.031Z,72.2
2023-02-15T12:26:43.023Z,72.4
2023-02-15T12:27:43.027Z,72.4
2023-02-15T12:28:43.102Z,72.2
2023-02-15T12:29:43.187Z,72.3
2023-02-15T12:30:43.095Z,72.4
2023-02-15T12:31:43.505Z,72.1
2023-02-15T12:32:43.121Z,72.2
2023-02-15T12:33:43.126Z,72.4
2023-02-15T12:34:43.088Z,72.4
2023-02-15T12:35:43.095Z,72.5
2023-02-15T12:36:43.110Z,72.6
2023-02-15T12:37:43.112Z,72.7
2023-02-15T12:38:43.115Z,72.7
2023-02-15T12:39:43.142Z,72.7
2023-02-15T12:40:43.134Z,72.7
2023-02-15T12:41:43.147Z,72.4
2023-02-15T12:42:43.156Z,72.6
2023-02-15T12:43:43.158Z,72.6
2023-02-15T12:44:43.168Z,73.0
2023-02-15T12:45:43.187Z,73.0
2023-02-15T12:46:45.883Z,72.8
2023-02-15T12:47:43.193Z,72.6
2023-02-15T12:48:43.202Z,72.5
2023-02-15T12:49:48.317Z,72.3
2023-02-15T12:50:43.248Z,71.8
2023-02-15T12:51:43.435Z,71.9
2023-02-15T12:52:43.239Z,71.9
2023-02-15T12:53:45.434Z,71.9
2023-02-15T12:54:43.298Z,72.1
2023-02-15T12:55:46.160Z,72.3
2023-02-15T12:56:43.286Z,72.3
2023-02-15T12:57:43.284Z,72.3
2023-02-15T12:59:44.829Z,72.4
2023-02-15T13:00:43.443Z,72.6
2023-02-15T13:01:43.512Z,72.9
2023-02-15T13:02:43.339Z,73.1
2023-02-15T13:03:43.343Z,73.2
2023-02-15T13:04:43.352Z,73.3
2023-02-15T13:05:45.378Z,73.3
2023-02-15T13:06:43.413Z,73.3
2023-02-15T13:07:43.382Z,73.3
2023-02-15T13:08:43.375Z,73.5
2023-02-15T13:09:43.383Z,73.6
2023-02-15T13:10:43.400Z,73.8
2023-02-15T13:11:43.415Z,74.0
2023-02-15T13:12:43.414Z,74.2
2023-02-15T13:13:43.510Z,74.4
2023-02-15T13:14:43.427Z,74.4
2023-02-15T13:15:43.451Z,74.6
2023-02-15T13:16:43.735Z,74.7
2023-02-15T13:17:43.462Z,74.8
2023-02-15T13:18:43.491Z,75.0
2023-02-15T13:19:43.489Z,75.3
2023-02-15T13:20:43.462Z,75.5
2023-02-15T13:21:43.479Z,75.7
2023-02-15T13:22:43.481Z,75.8
2023-02-15T13:23:43.496Z,76.1
2023-02-15T13:24:43.509Z,76.2
2023-02-15T13:25:43.533Z,76.4
2023-02-15T13:26:43.514Z,76.7
2023-02-15T13:27:43.544Z,76.7
2023-02-15T13:28:43.543Z,76.8
2023-02-15T13:29:43.538Z,76.8
2023-02-15T13:30:43.580Z,77.3
2023-02-15T13:31:44.071Z,77.4
2023-02-15T13:32:43.589Z,77.4
2023-02-15T13:33:43.725Z,77.4
2023-02-15T13:34:43.575Z,77.3
2023-02-15T13:35:43.588Z,77.3
2023-02-15T13:36:43.619Z,77.0